Graham, Alabama
Current Conditions -  °F | °C
As of 3:55 PM on Monday 22 Dec 2014 (Local Time) from KCTJ Reporting Station
Moderate Rain Moderate Rain  
Wind Chill: 41°   Ceiling: 400
Heat Index: 45°   Visibility: 10mi
Dew Point: 45°   Wind: 7mph
Humidity: 100%   Direction: 120°ESE
Pressure: 29.91"   Gusts: NA
Location:  33.46°N, 85.32°W
Report Text: KCTJ 222155Z AUTO 12006KT 10SM RA OVC004 07/07 A2991 RMK AO2
Loading
Personal Weather Stations






























Interactive Weather Map New forecast layout! Learn more

10-Day Weather Forecast

Advertisements
Track Severe Weather on mobile